createdAt,value
2019-01-30T00:01:37.882Z,17.40
2019-01-30T00:04:06.544Z,13.23
2019-01-30T00:06:35.070Z,16.10
2019-01-30T00:09:05.108Z,12.90
2019-01-30T00:11:34.470Z,20.43
2019-01-30T00:14:02.975Z,19.00
2019-01-30T00:16:31.716Z,14.53
2019-01-30T00:19:00.435Z,12.10
2019-01-30T00:21:28.899Z,16.60
2019-01-30T00:23:58.139Z,11.43
2019-01-30T00:26:26.597Z,12.07
2019-01-30T00:28:55.327Z,15.43
2019-01-30T00:31:24.066Z,14.50
2019-01-30T00:33:52.511Z,17.83
2019-01-30T00:36:21.341Z,18.67
2019-01-30T00:38:50.105Z,13.43
2019-01-30T00:41:18.563Z,22.73
2019-01-30T00:44:07.687Z,15.83
2019-01-30T00:46:36.485Z,13.27
2019-01-30T00:49:05.330Z,11.33
2019-01-30T00:51:35.232Z,18.50
2019-01-30T00:54:03.810Z,15.53
2019-01-30T00:56:33.185Z,13.13
2019-01-30T00:59:01.735Z,12.87
2019-01-30T01:01:30.315Z,16.20
2019-01-30T01:03:58.826Z,15.43
2019-01-30T01:06:29.108Z,11.20
2019-01-30T01:08:57.561Z,16.77
2019-01-30T01:11:26.263Z,18.23
2019-01-30T01:13:56.281Z,13.93
2019-01-30T01:16:24.812Z,19.90
2019-01-30T01:18:53.575Z,18.13
2019-01-30T01:21:22.341Z,14.07
2019-01-30T01:23:51.705Z,13.33
2019-01-30T01:26:20.190Z,15.73
2019-01-30T01:28:48.835Z,19.50
2019-01-30T01:31:17.551Z,24.17
2019-01-30T01:33:46.326Z,14.80
2019-01-30T01:36:15.125Z,17.97
2019-01-30T01:38:43.931Z,14.13
2019-01-30T01:41:12.693Z,14.07
2019-01-30T01:43:43.307Z,19.10
2019-01-30T01:46:11.909Z,18.57
2019-01-30T01:48:40.487Z,13.77
2019-01-30T01:51:11.965Z,11.17
2019-01-30T01:53:40.696Z,8.57
2019-01-30T01:56:09.595Z,15.33
2019-01-30T01:58:38.225Z,13.57
2019-01-30T02:01:08.133Z,14.13
2019-01-30T02:03:36.857Z,11.73
2019-01-30T02:06:05.748Z,16.67
2019-01-30T02:08:34.593Z,15.17
2019-01-30T02:11:03.473Z,15.87
2019-01-30T02:13:32.309Z,12.53
2019-01-30T02:16:01.296Z,12.73
2019-01-30T02:18:30.043Z,14.07
2019-01-30T02:20:58.598Z,15.97
2019-01-30T02:23:27.409Z,17.83
2019-01-30T02:25:55.864Z,15.10
2019-01-30T02:28:24.580Z,16.93
2019-01-30T02:30:53.318Z,11.07
2019-01-30T02:33:22.085Z,10.80
2019-01-30T02:35:50.617Z,12.03
2019-01-30T02:38:19.467Z,18.93
2019-01-30T02:40:48.061Z,14.67
2019-01-30T02:43:16.837Z,16.53
2019-01-30T02:45:45.699Z,13.87
2019-01-30T02:48:14.472Z,21.03
2019-01-30T02:50:42.926Z,14.23
2019-01-30T02:53:11.769Z,22.57
2019-01-30T02:55:42.138Z,18.33
2019-01-30T02:58:10.862Z,16.30
2019-01-30T03:00:39.624Z,14.47
2019-01-30T03:03:08.372Z,15.10
2019-01-30T03:05:37.296Z,19.07
2019-01-30T03:08:05.994Z,18.30
2019-01-30T03:10:34.457Z,17.07
2019-01-30T03:13:02.899Z,16.90
2019-01-30T03:15:33.225Z,22.90
2019-01-30T03:18:05.045Z,19.60
2019-01-30T03:20:33.815Z,17.73
2019-01-30T03:23:02.317Z,24.83
2019-01-30T03:25:31.042Z,14.17
2019-01-30T03:27:59.805Z,16.07
2019-01-30T03:30:30.967Z,18.63
2019-01-30T03:33:01.305Z,20.63
2019-01-30T03:35:30.047Z,21.27
2019-01-30T03:37:58.575Z,21.40
2019-01-30T03:40:27.042Z,26.73
2019-01-30T03:42:55.501Z,18.10
2019-01-30T03:45:24.801Z,27.10
2019-01-30T03:47:53.671Z,21.37
2019-01-30T03:50:22.567Z,18.47
2019-01-30T03:52:51.495Z,25.70
2019-01-30T03:55:21.402Z,23.83
2019-01-30T03:57:50.357Z,28.03
2019-01-30T04:00:26.516Z,30.80
2019-01-30T04:02:55.144Z,29.97
2019-01-30T04:05:24.010Z,22.00
2019-01-30T04:07:52.665Z,29.60
2019-01-30T04:10:24.634Z,33.90
2019-01-30T04:12:53.444Z,21.80
2019-01-30T04:15:24.090Z,24.33
2019-01-30T04:17:52.904Z,27.60
2019-01-30T04:20:22.114Z,25.77
2019-01-30T04:22:50.682Z,28.43
2019-01-30T04:25:19.625Z,24.13
2019-01-30T04:27:48.747Z,26.60
2019-01-30T04:30:20.652Z,25.03
2019-01-30T04:32:49.193Z,28.40
2019-01-30T04:35:17.748Z,31.73
2019-01-30T04:37:46.276Z,28.13
2019-01-30T04:40:16.996Z,25.90
2019-01-30T04:42:45.588Z,29.07
2019-01-30T04:45:19.436Z,26.67
2019-01-30T04:47:48.252Z,23.50
2019-01-30T04:50:17.154Z,25.57
2019-01-30T04:52:45.759Z,30.73
2019-01-30T04:55:16.028Z,28.33
2019-01-30T04:57:44.742Z,31.23
2019-01-30T05:00:16.791Z,23.60
2019-01-30T05:02:45.274Z,30.20
2019-01-30T05:05:14.146Z,25.73
2019-01-30T05:07:42.989Z,29.83
2019-01-30T05:10:13.614Z,31.47
2019-01-30T05:12:43.797Z,28.33
2019-01-30T05:15:18.131Z,32.27
2019-01-30T05:17:46.932Z,28.57
2019-01-30T05:20:17.458Z,26.17
2019-01-30T05:22:46.074Z,34.77
2019-01-30T05:25:15.192Z,28.60
2019-01-30T05:27:43.826Z,25.07
2019-01-30T05:30:15.913Z,23.57
2019-01-30T05:32:44.460Z,28.40
2019-01-30T05:35:13.279Z,26.03
2019-01-30T05:37:41.822Z,30.70
2019-01-30T05:40:13.290Z,25.47
2019-01-30T05:42:41.854Z,28.23
2019-01-30T05:45:13.207Z,31.27
2019-01-30T05:47:42.014Z,27.47
2019-01-30T05:50:11.313Z,28.63
2019-01-30T05:52:40.144Z,31.63
2019-01-30T05:55:10.950Z,28.43
2019-01-30T05:57:39.505Z,26.33
2019-01-30T06:00:25.755Z,29.83
2019-01-30T06:02:54.562Z,26.07
2019-01-30T06:05:30.180Z,23.47
2019-01-30T06:07:59.800Z,25.07
2019-01-30T06:10:28.398Z,29.07
2019-01-30T06:12:58.582Z,29.40
2019-01-30T06:15:27.418Z,30.20
2019-01-30T06:17:56.223Z,28.50
2019-01-30T06:20:27.231Z,27.60
2019-01-30T06:22:56.860Z,24.87
2019-01-30T06:25:25.729Z,27.23
2019-01-30T06:27:54.612Z,23.73
2019-01-30T06:30:25.030Z,25.87
2019-01-30T06:32:55.135Z,27.97
2019-01-30T06:35:23.756Z,28.90
2019-01-30T06:37:52.433Z,25.60
2019-01-30T06:40:23.535Z,28.57
2019-01-30T06:42:52.000Z,30.20
2019-01-30T06:45:20.635Z,28.87
2019-01-30T06:47:49.096Z,29.47
2019-01-30T06:50:22.158Z,23.97
2019-01-30T06:52:50.625Z,26.07
2019-01-30T06:55:19.096Z,29.20
2019-01-30T06:57:47.877Z,25.37
2019-01-30T07:00:18.989Z,24.10
2019-01-30T07:02:47.770Z,23.53
2019-01-30T07:05:20.363Z,21.47
2019-01-30T07:07:48.939Z,26.57
2019-01-30T07:10:23.137Z,23.10
2019-01-30T07:12:52.133Z,24.90
2019-01-30T07:15:20.995Z,37.97
2019-01-30T07:17:49.851Z,21.97
2019-01-30T07:20:18.917Z,29.60
2019-01-30T07:22:47.829Z,22.90
2019-01-30T07:25:21.269Z,17.77
2019-01-30T07:27:51.029Z,22.77
2019-01-30T07:30:28.413Z,24.20
2019-01-30T07:32:57.107Z,26.27
2019-01-30T07:35:25.989Z,28.37
2019-01-30T07:37:54.853Z,25.97
2019-01-30T07:40:23.765Z,37.33
2019-01-30T07:42:52.595Z,38.10
2019-01-30T07:45:33.265Z,24.80
2019-01-30T07:48:01.795Z,31.57
2019-01-30T07:50:31.619Z,29.20
2019-01-30T07:53:00.193Z,28.07
2019-01-30T07:55:29.025Z,34.97
2019-01-30T07:57:59.437Z,35.50
2019-01-30T08:00:29.921Z,33.87
2019-01-30T08:03:04.265Z,37.97
2019-01-30T08:05:32.917Z,39.13
2019-01-30T08:08:01.696Z,39.70
2019-01-30T08:10:30.631Z,33.63
2019-01-30T08:12:59.675Z,26.03
2019-01-30T08:15:28.548Z,27.77
2019-01-30T08:17:57.374Z,22.97
2019-01-30T08:20:25.865Z,29.80
2019-01-30T08:22:54.796Z,23.70
2019-01-30T08:25:26.259Z,28.10
2019-01-30T08:27:54.943Z,25.73
2019-01-30T08:30:49.749Z,27.13
2019-01-30T08:33:08.130Z,26.10
2019-01-30T08:35:36.908Z,24.43
2019-01-30T08:38:28.680Z,22.57
2019-01-30T08:40:59.937Z,26.33
2019-01-30T08:43:28.929Z,27.27
2019-01-30T08:45:57.541Z,22.70
2019-01-30T08:48:28.551Z,24.63
2019-01-30T08:50:56.667Z,24.07
2019-01-30T08:53:28.762Z,24.73
2019-01-30T08:55:57.701Z,27.50
2019-01-30T08:58:26.402Z,24.07
2019-01-30T09:00:54.978Z,28.47
2019-01-30T09:03:23.755Z,26.87
2019-01-30T09:05:52.319Z,25.67
2019-01-30T09:08:20.906Z,30.70
2019-01-30T09:10:49.795Z,22.30
2019-01-30T09:13:18.324Z,31.23
2019-01-30T09:15:47.149Z,29.63
2019-01-30T09:18:15.979Z,27.00
2019-01-30T09:20:44.830Z,23.93
2019-01-30T09:23:14.118Z,28.40
2019-01-30T09:25:42.599Z,23.87
2019-01-30T09:28:12.031Z,26.43
2019-01-30T09:30:40.598Z,28.17
2019-01-30T09:33:09.697Z,22.07
2019-01-30T09:35:38.920Z,24.30
2019-01-30T09:38:14.999Z,24.20
2019-01-30T09:40:43.820Z,23.23
2019-01-30T09:43:12.615Z,23.27
2019-01-30T09:45:42.322Z,20.27
2019-01-30T09:48:10.858Z,25.53
2019-01-30T09:50:39.827Z,18.57
2019-01-30T09:53:08.504Z,21.07
2019-01-30T09:55:37.389Z,24.77
2019-01-30T09:58:06.169Z,23.73
2019-01-30T10:00:38.960Z,23.80
2019-01-30T10:03:09.406Z,24.67
2019-01-30T10:05:38.798Z,17.90
2019-01-30T10:08:07.842Z,19.40
2019-01-30T10:10:42.364Z,20.50
2019-01-30T10:13:11.380Z,19.97
2019-01-30T10:15:49.594Z,21.07
2019-01-30T10:18:18.346Z,23.07
2019-01-30T10:20:47.760Z,24.00
2019-01-30T10:23:16.458Z,18.83
2019-01-30T10:25:45.308Z,25.80
2019-01-30T10:28:16.778Z,21.00
2019-01-30T10:30:48.771Z,21.77
2019-01-30T10:33:17.612Z,19.60
2019-01-30T10:35:46.554Z,19.20
2019-01-30T10:38:15.426Z,22.57
2019-01-30T10:40:43.978Z,19.97
2019-01-30T10:43:12.510Z,28.40
2019-01-30T10:45:41.355Z,20.43
2019-01-30T10:48:10.275Z,20.07
2019-01-30T10:50:38.892Z,22.23
2019-01-30T10:53:07.767Z,21.53
2019-01-30T10:55:37.068Z,19.37
2019-01-30T10:58:08.743Z,23.27
2019-01-30T11:00:40.726Z,20.67
2019-01-30T11:03:09.624Z,22.57
2019-01-30T11:05:38.453Z,24.30
2019-01-30T11:08:08.862Z,17.83
2019-01-30T11:10:39.338Z,21.10
2019-01-30T11:13:08.343Z,21.83
2019-01-30T11:15:37.222Z,21.27
2019-01-30T11:18:08.906Z,18.60
2019-01-30T11:20:38.421Z,23.40
2019-01-30T11:23:07.320Z,21.53
2019-01-30T11:25:41.382Z,25.63
2019-01-30T11:28:10.182Z,19.47
2019-01-30T11:30:38.900Z,18.67
2019-01-30T11:33:07.488Z,20.67
2019-01-30T11:35:36.367Z,18.43
2019-01-30T11:38:05.720Z,17.80
2019-01-30T11:40:34.350Z,23.93
2019-01-30T11:43:03.091Z,24.80
2019-01-30T11:45:34.217Z,24.90
2019-01-30T11:48:03.013Z,26.37
2019-01-30T11:50:31.622Z,26.17
2019-01-30T11:53:00.132Z,29.27
2019-01-30T11:55:29.034Z,25.53
2019-01-30T11:57:57.894Z,26.13
2019-01-30T12:00:33.131Z,25.63
2019-01-30T12:03:02.133Z,23.83
2019-01-30T12:05:30.743Z,25.23
2019-01-30T12:07:59.368Z,30.43
2019-01-30T12:10:28.195Z,22.87
2019-01-30T12:12:56.706Z,23.07
2019-01-30T12:15:38.586Z,24.87
2019-01-30T12:18:07.642Z,31.73
2019-01-30T12:20:36.535Z,28.47
2019-01-30T12:23:06.092Z,26.60
2019-01-30T12:25:35.021Z,26.50
2019-01-30T12:28:03.662Z,27.67
2019-01-30T12:30:32.509Z,24.73
2019-01-30T12:33:01.109Z,27.47
2019-01-30T12:35:32.923Z,36.03
2019-01-30T12:38:01.612Z,30.43
2019-01-30T12:40:30.672Z,32.73
2019-01-30T12:43:00.562Z,32.67
2019-01-30T12:45:31.255Z,37.67
2019-01-30T12:48:00.260Z,37.50
2019-01-30T12:50:29.715Z,37.10
2019-01-30T12:52:58.207Z,42.07
2019-01-30T12:55:29.322Z,40.97
2019-01-30T12:57:57.355Z,40.00
2019-01-30T13:00:28.713Z,36.87
2019-01-30T13:02:57.494Z,36.77
2019-01-30T13:05:26.843Z,44.00
2019-01-30T13:07:55.734Z,44.60
2019-01-30T13:10:24.339Z,42.87
2019-01-30T13:12:53.367Z,42.07
2019-01-30T13:15:27.476Z,46.37
2019-01-30T13:17:57.309Z,48.00
2019-01-30T13:20:25.923Z,48.13
2019-01-30T13:22:55.139Z,48.50
2019-01-30T13:25:31.397Z,44.90
2019-01-30T13:28:02.293Z,52.37
2019-01-30T13:30:35.817Z,47.07
2019-01-30T13:33:06.501Z,49.57
2019-01-30T13:35:35.113Z,51.13
2019-01-30T13:38:03.955Z,50.60
2019-01-30T13:40:34.840Z,47.60
2019-01-30T13:43:04.228Z,47.73
2019-01-30T13:45:32.767Z,51.50
2019-01-30T13:48:01.448Z,50.97
2019-01-30T13:50:30.918Z,51.10
2019-01-30T13:52:59.696Z,52.73
2019-01-30T13:55:28.415Z,54.03
2019-01-30T13:57:57.025Z,53.67
2019-01-30T14:00:28.281Z,56.07
2019-01-30T14:02:57.045Z,53.00
2019-01-30T14:05:25.501Z,51.77
2019-01-30T14:07:54.706Z,54.10
2019-01-30T14:10:23.323Z,53.60
2019-01-30T14:12:52.137Z,53.97
2019-01-30T14:15:23.632Z,52.33
2019-01-30T14:18:10.214Z,47.87
2019-01-30T14:20:38.753Z,51.30
2019-01-30T14:23:07.910Z,45.70
2019-01-30T14:25:36.718Z,44.00
2019-01-30T14:28:05.499Z,44.50
2019-01-30T14:30:35.842Z,44.40
2019-01-30T14:33:04.753Z,46.93
2019-01-30T14:35:34.914Z,45.03
2019-01-30T14:38:03.865Z,52.73
2019-01-30T14:40:32.708Z,47.43
2019-01-30T14:43:01.300Z,51.77
2019-01-30T14:45:35.996Z,44.63
2019-01-30T14:48:05.070Z,47.43
2019-01-30T14:50:33.672Z,48.93
2019-01-30T14:53:02.225Z,49.90
2019-01-30T14:55:30.838Z,41.70
2019-01-30T14:58:00.514Z,42.90
2019-01-30T15:00:35.841Z,48.80
2019-01-30T15:03:06.512Z,44.80
2019-01-30T15:05:37.143Z,41.27
2019-01-30T15:08:06.157Z,42.80
2019-01-30T15:10:35.530Z,48.17
2019-01-30T15:13:04.899Z,47.93
2019-01-30T15:15:33.446Z,46.43
2019-01-30T15:18:02.374Z,49.43
2019-01-30T15:20:33.365Z,46.43
2019-01-30T15:23:02.637Z,54.27
2019-01-30T15:25:31.835Z,46.57
2019-01-30T15:28:00.732Z,50.07
2019-01-30T15:30:38.072Z,53.40
2019-01-30T15:33:07.378Z,48.70
2019-01-30T15:35:36.307Z,51.73
2019-01-30T15:38:07.994Z,54.40
2019-01-30T15:40:36.481Z,49.97
2019-01-30T15:43:07.886Z,54.70
2019-01-30T15:45:37.367Z,53.73
2019-01-30T15:48:07.590Z,51.10
2019-01-30T15:50:39.161Z,53.83
2019-01-30T15:53:10.702Z,53.53
2019-01-30T15:55:39.693Z,50.87
2019-01-30T15:58:10.559Z,55.63
2019-01-30T16:00:47.786Z,56.10
2019-01-30T16:03:17.234Z,49.63
2019-01-30T16:05:45.844Z,52.23
2019-01-30T16:08:15.357Z,60.80
2019-01-30T16:10:51.268Z,56.57
2019-01-30T16:13:21.711Z,53.00
2019-01-30T16:15:53.833Z,52.90
2019-01-30T16:21:13.004Z,55.03
2019-01-30T16:24:31.186Z,123.73
2019-01-30T16:27:00.062Z,63.23
2019-01-30T16:29:28.512Z,58.93
2019-01-30T16:31:56.998Z,61.73
2019-01-30T16:34:37.755Z,58.83
2019-01-30T16:37:19.786Z,55.20
2019-01-30T16:39:59.015Z,60.00
2019-01-30T16:42:35.173Z,65.57
2019-01-30T16:45:07.226Z,108.57
2019-01-30T16:47:37.475Z,70.77
2019-01-30T16:50:09.567Z,54.17
2019-01-30T16:52:38.380Z,55.03
2019-01-30T16:55:09.458Z,55.27
2019-01-30T16:57:40.239Z,48.73
2019-01-30T17:00:20.465Z,57.47
2019-01-30T17:02:48.954Z,51.17
2019-01-30T17:05:18.882Z,51.23
2019-01-30T17:07:47.458Z,52.83
2019-01-30T17:10:18.128Z,50.60
2019-01-30T17:12:48.158Z,52.27
2019-01-30T17:15:20.007Z,50.77
2019-01-30T17:17:51.862Z,59.83
2019-01-30T17:20:25.701Z,57.30
2019-01-30T17:22:55.166Z,56.13
2019-01-30T17:25:25.506Z,52.07
2019-01-30T17:27:54.073Z,53.83
2019-01-30T17:30:31.318Z,47.73
2019-01-30T17:33:01.492Z,51.90
2019-01-30T17:35:30.293Z,50.30
2019-01-30T17:38:00.036Z,45.30
2019-01-30T17:40:29.800Z,42.60
2019-01-30T17:43:00.000Z,42.03
2019-01-30T17:45:29.986Z,42.43
2019-01-30T17:48:09.938Z,43.03
2019-01-30T17:50:38.542Z,39.10
2019-01-30T17:53:07.005Z,36.13
2019-01-30T17:55:35.548Z,45.70
2019-01-30T17:58:04.398Z,42.03
2019-01-30T18:00:46.904Z,43.63
2019-01-30T18:03:15.722Z,37.13
2019-01-30T18:05:44.909Z,39.10
2019-01-30T18:08:13.791Z,37.70
2019-01-30T18:10:42.643Z,39.23
2019-01-30T18:13:11.094Z,43.60
2019-01-30T18:15:39.640Z,43.33
2019-01-30T18:18:12.445Z,39.03
2019-01-30T18:20:41.429Z,39.43
2019-01-30T18:23:10.039Z,35.50
2019-01-30T18:25:38.578Z,37.93
2019-01-30T18:28:09.924Z,34.50
2019-01-30T18:30:38.381Z,33.70
2019-01-30T18:33:06.895Z,33.90
2019-01-30T18:35:35.724Z,39.93
2019-01-30T18:38:04.876Z,27.93
2019-01-30T18:40:33.591Z,30.10
2019-01-30T18:43:02.296Z,31.23
2019-01-30T18:45:30.793Z,28.07
2019-01-30T18:47:59.533Z,25.33
2019-01-30T18:50:29.212Z,24.23
2019-01-30T18:52:58.200Z,22.73
2019-01-30T18:55:27.001Z,23.20
2019-01-30T18:57:55.891Z,21.03
2019-01-30T19:00:29.408Z,26.00
2019-01-30T19:02:59.417Z,22.40
2019-01-30T19:05:29.641Z,24.70
2019-01-30T19:07:58.543Z,21.13
2019-01-30T19:10:27.029Z,22.90
2019-01-30T19:12:55.884Z,23.63
2019-01-30T19:15:29.654Z,25.60
2019-01-30T19:17:58.491Z,31.00
2019-01-30T19:20:36.133Z,23.87
2019-01-30T19:23:06.855Z,22.93
2019-01-30T19:25:35.142Z,21.53
2019-01-30T19:28:05.618Z,26.30
2019-01-30T19:30:34.210Z,22.20
2019-01-30T19:33:04.773Z,24.87
2019-01-30T19:35:33.517Z,23.87
2019-01-30T19:38:01.968Z,25.50
2019-01-30T19:40:30.504Z,33.73
2019-01-30T19:42:59.271Z,35.70
2019-01-30T19:45:28.369Z,40.10
2019-01-30T19:47:57.845Z,39.70
2019-01-30T19:50:28.922Z,40.87
2019-01-30T19:52:57.778Z,47.53
2019-01-30T19:55:26.550Z,39.10
2019-01-30T19:57:55.973Z,38.47
2019-01-30T20:00:30.061Z,44.77
2019-01-30T20:02:59.429Z,45.67
2019-01-30T20:05:28.043Z,43.40
2019-01-30T20:07:56.569Z,40.23
2019-01-30T20:10:27.932Z,38.73
2019-01-30T20:12:56.660Z,40.60
2019-01-30T20:15:25.651Z,37.60
2019-01-30T20:17:54.440Z,39.57
2019-01-30T20:20:23.061Z,39.67
2019-01-30T20:22:51.963Z,33.67
2019-01-30T20:25:26.245Z,31.73
2019-01-30T20:27:54.707Z,31.23
2019-01-30T20:30:24.636Z,34.23
2019-01-30T20:32:53.572Z,33.63
2019-01-30T20:35:22.605Z,28.03
2019-01-30T20:37:52.938Z,25.93
2019-01-30T20:40:30.389Z,36.37
2019-01-30T20:43:01.877Z,32.10
2019-01-30T20:45:33.782Z,34.13
2019-01-30T20:48:01.103Z,25.77
2019-01-30T20:50:31.709Z,31.43
2019-01-30T20:53:00.565Z,34.33
2019-01-30T20:55:29.453Z,52.17
2019-01-30T20:57:57.978Z,25.97
2019-01-30T21:00:35.085Z,30.83
2019-01-30T21:03:05.888Z,33.23
2019-01-30T21:05:36.297Z,31.93
2019-01-30T21:08:08.005Z,33.47
2019-01-30T21:10:40.581Z,45.73
2019-01-30T21:13:11.112Z,40.50
2019-01-30T21:15:39.868Z,36.20
2019-01-30T21:18:08.719Z,38.90
2019-01-30T21:20:37.513Z,27.63
2019-01-30T21:23:06.660Z,34.43
2019-01-30T21:25:35.173Z,30.80
2019-01-30T21:28:05.720Z,44.20
2019-01-30T21:30:38.865Z,32.77
2019-01-30T21:33:07.368Z,39.00
2019-01-30T21:35:37.720Z,30.43
2019-01-30T21:38:09.378Z,33.80
2019-01-30T21:40:41.520Z,32.57
2019-01-30T21:43:13.662Z,40.23
2019-01-30T21:45:42.203Z,38.93
2019-01-30T21:48:13.680Z,43.47
2019-01-30T21:50:43.882Z,40.47
2019-01-30T21:53:12.898Z,35.73
2019-01-30T21:55:45.949Z,49.47
2019-01-30T21:58:14.722Z,43.30
2019-01-30T22:00:47.761Z,38.47
2019-01-30T22:03:16.386Z,36.53
2019-01-30T22:05:45.514Z,37.50
2019-01-30T22:08:15.153Z,35.10
2019-01-30T22:10:44.197Z,37.50
2019-01-30T22:13:12.891Z,36.63
2019-01-30T22:15:41.349Z,37.60
2019-01-30T22:18:11.982Z,34.77
2019-01-30T22:20:40.494Z,38.17
2019-01-30T22:23:09.212Z,45.93
2019-01-30T22:25:38.140Z,41.13
2019-01-30T22:28:06.624Z,37.90
2019-01-30T22:30:35.747Z,43.30
2019-01-30T22:33:04.642Z,37.37
2019-01-30T22:35:33.088Z,48.13
2019-01-30T22:38:12.132Z,42.40
2019-01-30T22:40:33.437Z,48.70
2019-01-30T22:43:03.821Z,52.77
2019-01-30T22:45:32.367Z,41.27
2019-01-30T22:48:01.010Z,43.37
2019-01-30T22:50:30.040Z,46.97
2019-01-30T22:52:59.643Z,48.07
2019-01-30T22:55:28.116Z,50.00
2019-01-30T22:57:56.884Z,42.13
2019-01-30T23:01:01.396Z,40.23
2019-01-30T23:03:35.807Z,49.00
2019-01-30T23:06:19.264Z,48.07
2019-01-30T23:09:10.894Z,39.13
2019-01-30T23:12:05.141Z,47.20
2019-01-30T23:14:37.428Z,49.57
2019-01-30T23:17:27.173Z,45.50
2019-01-30T23:20:00.678Z,50.53
2019-01-30T23:22:47.574Z,47.13
2019-01-30T23:25:34.198Z,50.90
2019-01-30T23:28:05.760Z,51.20
2019-01-30T23:30:55.846Z,44.53
2019-01-30T23:33:30.531Z,49.80
2019-01-30T23:36:22.912Z,45.90
2019-01-30T23:39:04.665Z,52.17
2019-01-30T23:41:37.114Z,46.30
2019-01-30T23:44:26.898Z,46.07
2019-01-30T23:47:13.753Z,59.30
2019-01-30T23:49:51.953Z,44.43
2019-01-30T23:52:32.459Z,61.43
2019-01-30T23:55:19.139Z,53.57
2019-01-30T23:58:02.816Z,55.90
